TimeEST,TemperatureF,Dew PointF,Humidity,Sea Level PressureIn,VisibilityMPH,Wind Direction,Wind SpeedMPH,Gust SpeedMPH,PrecipitationIn,Events,Conditions,WindDirDegrees,DateUTC
12:53 AM,41.0,35.1,79,30.19,10.0,Calm,Calm,-,N/A,,Clear,0,2012-11-20 05:53:00
1:53 AM,42.1,35.1,76,30.18,10.0,Calm,Calm,-,N/A,,Clear,0,2012-11-20 06:53:00
3:53 AM,39.9,35.1,83,30.17,10.0,Calm,Calm,-,N/A,,Clear,0,2012-11-20 08:53:00
4:53 AM,39.9,35.1,83,30.17,10.0,Calm,Calm,-,N/A,,Overcast,0,2012-11-20 09:53:00
5:53 AM,41.0,36.0,82,30.17,10.0,Calm,Calm,-,N/A,,Scattered Clouds,0,2012-11-20 10:53:00
7:53 AM,37.0,34.0,89,30.18,10.0,Calm,Calm,-,N/A,,Clear,0,2012-11-20 12:53:00
8:53 AM,41.0,35.1,79,30.19,10.0,Calm,Calm,-,N/A,,Mostly Cloudy,0,2012-11-20 13:53:00
9:53 AM,48.0,35.1,61,30.19,10.0,Calm,Calm,-,N/A,,Clear,0,2012-11-20 14:53:00
10:53 AM,55.0,35.1,47,30.18,10.0,WSW,3.5,-,N/A,,Clear,240,2012-11-20 15:53:00
11:53 AM,59.0,37.0,44,30.16,10.0,South,4.6,-,N/A,,Clear,190,2012-11-20 16:53:00
12:53 PM,61.0,35.1,38,30.12,10.0,Calm,Calm,-,N/A,,Clear,0,2012-11-20 17:53:00
1:53 PM,62.1,35.1,37,30.10,10.0,SW,3.5,-,N/A,,Scattered Clouds,230,2012-11-20 18:53:00
2:53 PM,62.1,35.1,37,30.08,10.0,Calm,Calm,-,N/A,,Mostly Cloudy,0,2012-11-20 19:53:00
3:53 PM,62.1,36.0,38,30.07,10.0,Calm,Calm,-,N/A,,Mostly Cloudy,0,2012-11-20 20:53:00
4:53 PM,61.0,36.0,39,30.07,10.0,Calm,Calm,-,N/A,,Mostly Cloudy,0,2012-11-20 21:53:00
5:53 PM,57.9,37.9,47,30.08,10.0,Calm,Calm,-,N/A,,Overcast,0,2012-11-20 22:53:00
6:53 PM,55.9,37.9,51,30.09,10.0,Calm,Calm,-,N/A,,Overcast,0,2012-11-20 23:53:00
7:53 PM,55.9,39.9,55,30.11,10.0,Calm,Calm,-,N/A,,Overcast,0,2012-11-21 00:53:00
8:53 PM,55.0,41.0,59,30.11,10.0,Calm,Calm,-,N/A,,Overcast,0,2012-11-21 01:53:00
9:53 PM,53.1,42.1,66,30.12,10.0,Calm,Calm,-,N/A,,Overcast,0,2012-11-21 02:53:00
10:53 PM,53.1,41.0,64,30.12,10.0,Calm,Calm,-,N/A,,Overcast,0,2012-11-21 03:53:00
11:53 PM,53.1,41.0,64,30.12,10.0,Calm,Calm,-,N/A,,Overcast,0,2012-11-21 04:53:00